Time;durP1;ratioP1;P1;durP2;ratioP2;P2;SDS_P1;SDS_P2;PMS_P1;PMS_P2;Temp;Humidity;BMP_temperature;BMP_pressure;BME280_temperature;BME280_humidity;BME280_pressure;Samples;Min_cycle;Max_cycle;Signal;HPM_P1;HPM_P2
2021/01/02 00:00:51;;;;;;;41.45;21.88;;;0.20;99.90;;;;;;5051606;28;20040;-66
2021/01/02 00:03:47;;;;;;;37.83;20.75;;;0.10;99.90;;;;;;5050885;28;20029;-67
2021/01/02 00:06:27;;;;;;;39.08;20.92;;;0.10;99.90;;;;;;5051320;28;20056;-66
2021/01/02 00:09:05;;;;;;;34.97;19.98;;;0.00;99.90;;;;;;5051568;28;20029;-66
2021/01/02 00:11:52;;;;;;;42.80;21.95;;;0.00;99.90;;;;;;5051570;28;20105;-67
2021/01/02 00:14:49;;;;;;;35.90;19.90;;;-0.10;99.90;;;;;;5050278;28;20100;-66
2021/01/02 00:17:46;;;;;;;37.38;20.30;;;-0.10;99.90;;;;;;5051308;28;20391;-67
2021/01/02 00:20:23;;;;;;;43.38;21.17;;;-0.10;99.90;;;;;;5049762;28;20131;-66
2021/01/02 00:22:55;;;;;;;44.03;22.92;;;-0.10;99.90;;;;;;5051171;28;20473;-66
2021/01/02 00:25:23;;;;;;;41.47;23.33;;;-0.10;99.90;;;;;;5051191;28;20411;-66
2021/01/02 00:28:21;;;;;;;43.90;22.92;;;-0.10;99.90;;;;;;5049870;28;20494;-66
2021/01/02 00:30:52;;;;;;;38.22;21.95;;;-0.10;99.90;;;;;;5051195;28;20430;-66
2021/01/02 00:33:30;;;;;;;43.50;22.10;;;-0.10;99.90;;;;;;5030559;28;20025;-66
2021/01/02 00:36:09;;;;;;;44.63;23.52;;;0.00;99.90;;;;;;5031261;28;20018;-67
2021/01/02 00:38:38;;;;;;;43.78;23.65;;;0.00;99.90;;;;;;5051104;28;20047;-67
2021/01/02 00:41:05;;;;;;;44.45;22.65;;;0.00;99.90;;;;;;5051087;28;20105;-66
2021/01/02 00:43:33;;;;;;;44.38;23.35;;;0.00;99.90;;;;;;5049959;28;20029;-67
2021/01/02 00:45:59;;;;;;;47.05;23.80;;;0.00;99.90;;;;;;5050940;28;20025;-67
2021/01/02 00:48:26;;;;;;;44.53;23.23;;;0.00;99.90;;;;;;5050826;28;20025;-66
2021/01/02 00:50:54;;;;;;;47.95;24.52;;;0.00;99.90;;;;;;5051053;28;20036;-66
2021/01/02 00:53:32;;;;;;;47.78;25.38;;;0.10;99.90;;;;;;5050238;28;20499;-66
2021/01/02 00:56:05;;;;;;;47.75;25.50;;;0.20;99.90;;;;;;5050803;28;20446;-67
2021/01/02 00:58:57;;;;;;;46.38;24.50;;;0.20;99.90;;;;;;5049851;28;20025;-66
2021/01/02 01:01:35;;;;;;;49.80;26.27;;;0.20;99.90;;;;;;5050802;28;20103;-66
2021/01/02 01:04:22;;;;;;;49.00;24.13;;;0.30;99.90;;;;;;5050297;28;20046;-66
2021/01/02 01:06:54;;;;;;;45.38;24.33;;;0.30;99.90;;;;;;5050653;28;20033;-66
2021/01/02 01:09:23;;;;;;;44.88;23.30;;;0.30;99.90;;;;;;5050872;28;20098;-67
2021/01/02 01:11:53;;;;;;;44.80;23.38;;;0.40;99.90;;;;;;5050826;28;20142;-67
2021/01/02 01:14:21;;;;;;;42.40;23.08;;;0.40;99.90;;;;;;5049851;28;20486;-67
2021/01/02 01:16:49;;;;;;;45.33;24.00;;;0.30;99.90;;;;;;5050375;28;20489;-66
2021/01/02 01:19:18;;;;;;;44.58;23.15;;;0.40;99.90;;;;;;5050842;28;20079;-66
2021/01/02 01:21:45;;;;;;;41.90;22.92;;;0.40;99.90;;;;;;5050753;28;20100;-67
2021/01/02 01:24:13;;;;;;;41.50;22.92;;;0.40;99.90;;;;;;5049235;28;20029;-66
2021/01/02 01:26:41;;;;;;;42.85;22.50;;;0.40;99.90;;;;;;5050484;28;20024;-66
2021/01/02 01:29:26;;;;;;;39.63;21.98;;;0.50;99.90;;;;;;5050360;28;20021;-66
2021/01/02 01:31:57;;;;;;;38.83;21.90;;;0.50;99.90;;;;;;5054000;28;20036;-66
2021/01/02 01:34:24;;;;;;;38.45;21.15;;;0.60;99.90;;;;;;5053691;28;20082;-67
2021/01/02 01:36:50;;;;;;;41.33;22.15;;;0.50;99.90;;;;;;5053876;28;20029;-67
2021/01/02 01:39:21;;;;;;;38.42;22.48;;;0.40;99.90;;;;;;5053021;28;20035;-67
2021/01/02 01:41:52;;;;;;;40.55;22.52;;;0.50;99.90;;;;;;5054100;28;20029;-67
2021/01/02 01:44:43;;;;;;;40.70;21.00;;;0.60;99.90;;;;;;5053142;28;20031;-67
2021/01/02 01:47:21;;;;;;;39.60;21.50;;;0.60;99.90;;;;;;5054089;28;20089;-67
2021/01/02 01:49:55;;;;;;;37.17;21.00;;;0.50;99.90;;;;;;5053942;28;20032;-66
2021/01/02 01:52:52;;;;;;;40.33;20.80;;;0.50;99.90;;;;;;5053866;28;20036;-66
2021/01/02 01:55:43;;;;;;;34.40;19.48;;;0.40;99.90;;;;;;5053745;28;20021;-66
2021/01/02 01:58:10;;;;;;;38.45;20.13;;;0.30;99.90;;;;;;5053899;28;20314;-67
2021/01/02 02:00:46;;;;;;;36.83;19.00;;;0.30;99.90;;;;;;5053402;28;20096;-66
2021/01/02 02:03:36;;;;;;;38.85;19.98;;;0.30;99.90;;;;;;5053089;28;20024;-65
2021/01/02 02:06:21;;;;;;;35.13;20.65;;;0.40;99.90;;;;;;5053695;28;20032;-67
2021/01/02 02:08:56;;;;;;;43.90;22.10;;;0.30;99.90;;;;;;5053589;28;20021;-66
2021/01/02 02:11:44;;;;;;;39.92;20.63;;;0.40;99.90;;;;;;5057106;28;20166;-66
2021/01/02 02:14:15;;;;;;;40.50;20.92;;;0.50;99.90;;;;;;5056047;28;20375;-66
2021/01/02 02:16:50;;;;;;;42.47;21.63;;;0.60;99.90;;;;;;5054085;28;20028;-66
2021/01/02 02:19:35;;;;;;;39.85;21.40;;;0.60;99.90;;;;;;5052625;28;20112;-66
2021/01/02 02:22:05;;;;;;;37.15;21.50;;;0.60;99.90;;;;;;5053372;28;20096;-66
2021/01/02 02:24:32;;;;;;;41.92;23.38;;;0.60;99.90;;;;;;5052717;28;20036;-66
2021/01/02 02:27:00;;;;;;;37.47;22.38;;;0.60;99.90;;;;;;5053145;28;20124;-66
2021/01/02 02:29:37;;;;;;;38.03;21.27;;;0.60;99.90;;;;;;5052824;28;20029;-66
2021/01/02 02:32:07;;;;;;;37.50;21.95;;;0.60;99.90;;;;;;5053018;28;20064;-66
2021/01/02 02:34:35;;;;;;;39.05;22.33;;;0.60;99.90;;;;;;5051184;28;20021;-65
2021/01/02 02:37:02;;;;;;;34.83;21.55;;;0.70;99.90;;;;;;5052691;28;20036;-66
2021/01/02 02:39:27;;;;;;;37.05;21.75;;;0.60;99.90;;;;;;5053132;28;20025;-66
2021/01/02 02:41:58;;;;;;;40.72;22.80;;;0.70;99.90;;;;;;5052037;28;20039;-65
2021/01/02 02:44:37;;;;;;;39.25;22.20;;;0.70;99.90;;;;;;5051874;28;20104;-66
2021/01/02 02:47:04;;;;;;;33.97;20.88;;;0.70;99.90;;;;;;5052806;28;20033;-66
2021/01/02 02:49:35;;;;;;;43.15;23.40;;;0.70;99.90;;;;;;5052759;28;20028;-66
2021/01/02 02:52:24;;;;;;;41.45;23.13;;;0.70;99.90;;;;;;5052923;28;20025;-65
2021/01/02 02:54:51;;;;;;;38.97;22.60;;;0.80;99.90;;;;;;5051869;28;20025;-67
2021/01/02 02:57:18;;;;;;;36.13;21.02;;;0.80;99.90;;;;;;5052528;28;20502;-67
2021/01/02 02:59:44;;;;;;;41.00;22.10;;;0.80;99.90;;;;;;5052334;28;20029;-66
2021/01/02 03:02:10;;;;;;;37.13;20.15;;;0.80;99.90;;;;;;5052602;28;20031;-67
2021/01/02 03:04:36;;;;;;;38.00;21.45;;;0.80;99.90;;;;;;5052034;28;20024;-67
2021/01/02 03:07:03;;;;;;;34.42;20.38;;;0.80;99.90;;;;;;5052360;28;20365;-67
2021/01/02 03:09:30;;;;;;;39.97;21.30;;;0.80;99.90;;;;;;5052283;28;20028;-66
2021/01/02 03:11:56;;;;;;;33.88;21.13;;;0.80;99.90;;;;;;5052554;28;20025;-66
2021/01/02 03:14:22;;;;;;;34.22;20.33;;;0.80;99.90;;;;;;5052228;28;20450;-66
2021/01/02 03:16:47;;;;;;;37.00;21.17;;;0.90;99.90;;;;;;5052753;28;20113;-66
2021/01/02 03:19:13;;;;;;;37.72;20.67;;;0.80;99.90;;;;;;5052346;28;20079;-67
2021/01/02 03:21:39;;;;;;;38.47;20.00;;;0.90;99.90;;;;;;5052235;28;20033;-66
2021/01/02 03:24:07;;;;;;;35.33;20.52;;;0.90;99.90;;;;;;5051377;28;20074;-66
2021/01/02 03:26:33;;;;;;;37.80;19.92;;;0.80;99.90;;;;;;5052121;28;20021;-66
2021/01/02 03:28:59;;;;;;;37.65;20.58;;;0.90;99.90;;;;;;5051820;28;20033;-66
2021/01/02 03:31:25;;;;;;;35.50;20.83;;;0.80;99.90;;;;;;5052548;28;20031;-66
2021/01/02 03:33:50;;;;;;;34.67;20.40;;;0.80;99.90;;;;;;5051374;28;20021;-67
2021/01/02 03:36:16;;;;;;;33.95;20.65;;;0.90;99.90;;;;;;5051901;28;20092;-67
2021/01/02 03:38:54;;;;;;;30.77;19.85;;;0.90;99.90;;;;;;5050424;28;20503;-66
2021/01/02 03:41:21;;;;;;;36.58;20.80;;;0.90;99.90;;;;;;5051877;28;20029;-67
2021/01/02 03:43:46;;;;;;;35.47;21.30;;;0.80;99.90;;;;;;5050319;28;20041;-66
2021/01/02 03:46:12;;;;;;;37.38;21.05;;;0.80;99.90;;;;;;5051839;28;20064;-67
2021/01/02 03:48:38;;;;;;;34.25;20.10;;;0.90;99.90;;;;;;5051657;28;20123;-67
2021/01/02 03:51:04;;;;;;;31.88;19.88;;;0.90;99.90;;;;;;5051460;28;20428;-66
2021/01/02 03:53:30;;;;;;;32.17;20.00;;;0.90;99.90;;;;;;5050783;28;20211;-66
2021/01/02 03:55:55;;;;;;;34.70;19.75;;;0.90;99.90;;;;;;5051511;28;20064;-67
2021/01/02 03:58:21;;;;;;;34.45;18.35;;;0.90;99.90;;;;;;5050907;28;20036;-67
2021/01/02 04:00:47;;;;;;;28.17;16.88;;;1.10;99.90;;;;;;5050084;28;20025;-67
2021/01/02 04:03:12;;;;;;;29.60;17.88;;;1.00;99.90;;;;;;5049482;28;20032;-67
2021/01/02 04:05:38;;;;;;;28.75;17.08;;;1.00;99.90;;;;;;5051023;28;20029;-66
2021/01/02 04:08:05;;;;;;;28.35;17.65;;;1.00;99.90;;;;;;5051292;28;20021;-66
2021/01/02 04:10:30;;;;;;;28.90;18.20;;;1.00;99.90;;;;;;5051446;28;20029;-67
2021/01/02 04:12:56;;;;;;;29.55;17.73;;;1.10;99.90;;;;;;5050631;28;20043;-67
2021/01/02 04:15:22;;;;;;;28.33;16.85;;;1.00;99.90;;;;;;5050779;28;20024;-66
2021/01/02 04:17:47;;;;;;;27.35;16.15;;;1.00;99.90;;;;;;5051271;28;20394;-67
2021/01/02 04:20:13;;;;;;;27.63;17.45;;;1.00;99.90;;;;;;5064323;23;20099;-69
2021/01/02 04:22:39;;;;;;;26.10;15.20;;;1.00;99.90;;;;;;5042645;28;20021;-69
2021/01/02 04:25:06;;;;;;;23.48;15.38;;;1.10;99.90;;;;;;5051558;28;20111;-70
2021/01/02 04:27:31;;;;;;;26.05;15.75;;;1.10;99.90;;;;;;5051644;28;20017;-70
2021/01/02 04:29:57;;;;;;;23.63;15.32;;;1.20;99.90;;;;;;5050403;28;20029;-71
2021/01/02 04:32:23;;;;;;;26.05;14.98;;;1.20;99.90;;;;;;5051444;28;20112;-70
2021/01/02 04:34:48;;;;;;;25.17;14.85;;;1.20;99.90;;;;;;5050659;28;20116;-71
2021/01/02 04:37:14;;;;;;;26.30;16.17;;;1.30;99.90;;;;;;5051365;28;20098;-69
2021/01/02 04:39:40;;;;;;;30.40;15.27;;;1.30;99.90;;;;;;5050388;28;20033;-69
2021/01/02 04:42:06;;;;;;;24.30;15.77;;;1.30;99.90;;;;;;5051101;28;20033;-69
2021/01/02 04:44:33;;;;;;;30.15;16.98;;;1.30;99.90;;;;;;5049936;28;20083;-71
2021/01/02 04:47:02;;;;;;;26.02;16.05;;;1.30;99.90;;;;;;5051300;28;20386;-71
2021/01/02 04:49:28;;;;;;;28.38;16.67;;;1.20;99.90;;;;;;5050782;28;20021;-70
2021/01/02 04:52:00;;;;;;;26.98;16.88;;;1.20;99.90;;;;;;5051151;28;20024;-70
2021/01/02 04:54:27;;;;;;;25.60;15.65;;;1.30;99.90;;;;;;5049650;28;20017;-69
2021/01/02 04:56:52;;;;;;;29.65;16.20;;;1.20;99.90;;;;;;5051104;28;20021;-71
2021/01/02 04:59:23;;;;;;;25.75;16.55;;;1.30;99.90;;;;;;5049782;28;20024;-69
2021/01/02 05:01:51;;;;;;;29.02;16.45;;;1.30;99.90;;;;;;5051157;28;20035;-71
2021/01/02 05:04:17;;;;;;;29.60;17.23;;;1.30;99.90;;;;;;5052367;28;20021;-71
2021/01/02 05:06:43;;;;;;;30.77;17.52;;;1.30;99.90;;;;;;5073238;28;20362;-71
2021/01/02 05:09:09;;;;;;;28.73;16.42;;;1.20;99.90;;;;;;5055327;28;20478;-69
2021/01/02 05:11:36;;;;;;;33.92;19.42;;;1.30;99.90;;;;;;5054858;28;20112;-69
2021/01/02 05:14:02;;;;;;;38.17;20.27;;;1.40;99.90;;;;;;5054355;28;20028;-69
2021/01/02 05:16:35;;;;;;;29.23;17.50;;;1.40;99.90;;;;;;5054971;28;20025;-71
2021/01/02 05:19:03;;;;;;;31.83;18.42;;;1.30;99.90;;;;;;5055185;28;20439;-71
2021/01/02 05:21:31;;;;;;;33.13;19.15;;;1.30;99.90;;;;;;5055200;28;20048;-70
2021/01/02 05:24:19;;;;;;;30.75;18.42;;;1.30;99.90;;;;;;5054034;28;20049;-71
2021/01/02 05:26:54;;;;;;;36.40;19.17;;;1.30;99.90;;;;;;5035038;28;20487;-69
2021/01/02 05:29:27;;;;;;;33.20;19.40;;;1.30;99.90;;;;;;5034782;28;20034;-71
2021/01/02 05:32:04;;;;;;;35.88;18.80;;;1.30;99.90;;;;;;5043421;28;20032;-69
2021/01/02 05:34:31;;;;;;;32.15;18.60;;;1.30;99.90;;;;;;5054346;28;20047;-69
2021/01/02 05:37:00;;;;;;;28.45;16.58;;;1.30;99.90;;;;;;5054470;28;20086;-70
2021/01/02 05:39:37;;;;;;;30.48;17.30;;;1.50;99.90;;;;;;5054518;28;20115;-69
2021/01/02 05:42:04;;;;;;;33.95;19.35;;;1.40;99.90;;;;;;5069922;28;20028;-70
2021/01/02 05:44:33;;;;;;;34.28;19.27;;;1.40;99.90;;;;;;5054908;28;20040;-70
2021/01/02 05:46:59;;;;;;;30.55;18.42;;;1.40;99.90;;;;;;5055669;28;20029;-71
2021/01/02 05:49:28;;;;;;;29.83;18.42;;;1.30;99.90;;;;;;5057060;28;20036;-70
2021/01/02 05:51:57;;;;;;;30.02;17.88;;;1.40;99.90;;;;;;5055779;28;20021;-70
2021/01/02 05:54:28;;;;;;;34.35;19.38;;;1.30;99.90;;;;;;5055390;28;20021;-70
2021/01/02 05:57:04;;;;;;;32.45;18.67;;;1.40;99.90;;;;;;5054556;28;20031;-69
2021/01/02 05:59:38;;;;;;;34.67;18.52;;;1.30;99.90;;;;;;5055914;28;20032;-71
2021/01/02 06:02:19;;;;;;;32.15;19.55;;;1.30;99.90;;;;;;5055924;28;20047;-71
2021/01/02 06:05:01;;;;;;;33.80;17.90;;;1.40;99.90;;;;;;5053451;28;20032;-70
2021/01/02 06:07:32;;;;;;;29.57;17.13;;;1.30;99.90;;;;;;5069383;28;20031;-71
2021/01/02 06:09:58;;;;;;;30.42;17.15;;;1.30;99.90;;;;;;5044479;28;20283;-70
2021/01/02 06:12:29;;;;;;;28.23;17.80;;;1.30;99.90;;;;;;5048662;28;20021;-70
2021/01/02 06:15:02;;;;;;;30.73;17.77;;;1.30;99.90;;;;;;5051825;28;20028;-69
2021/01/02 06:17:30;;;;;;;30.40;18.20;;;1.30;99.90;;;;;;5033842;28;20260;-70
2021/01/02 06:19:58;;;;;;;34.55;19.02;;;1.20;99.90;;;;;;5044045;28;20127;-70
2021/01/02 06:22:25;;;;;;;32.03;18.77;;;1.30;99.90;;;;;;5044694;28;20032;-70
2021/01/02 06:24:51;;;;;;;30.35;18.00;;;1.20;99.90;;;;;;5046577;28;20455;-71
2021/01/02 06:27:17;;;;;;;32.33;19.45;;;1.20;99.90;;;;;;5041315;28;20056;-69
2021/01/02 06:30:04;;;;;;;35.20;20.58;;;1.30;99.90;;;;;;5052351;28;20116;-69
2021/01/02 06:32:29;;;;;;;33.95;19.05;;;1.30;99.90;;;;;;5039126;28;20041;-71
2021/01/02 06:35:25;;;;;;;32.53;19.23;;;1.20;99.90;;;;;;5032736;28;20056;-71
2021/01/02 06:37:56;;;;;;;32.85;19.15;;;1.20;99.90;;;;;;5021562;28;20175;-70
2021/01/02 06:40:43;;;;;;;36.85;20.83;;;1.20;99.90;;;;;;5032282;28;20511;-69
2021/01/02 06:43:17;;;;;;;37.53;21.38;;;1.20;99.90;;;;;;5032206;28;20029;-70
2021/01/02 06:45:48;;;;;;;40.22;22.73;;;1.20;99.90;;;;;;5034503;28;20067;-69
2021/01/02 06:48:16;;;;;;;37.42;21.20;;;1.20;99.90;;;;;;5033765;28;20148;-69
2021/01/02 06:50:54;;;;;;;40.40;22.52;;;1.10;99.90;;;;;;5033725;28;20044;-69
2021/01/02 06:53:22;;;;;;;36.63;21.10;;;1.20;99.90;;;;;;5033321;28;20021;-69
2021/01/02 06:56:03;;;;;;;41.47;23.52;;;1.20;99.90;;;;;;5046143;28;20497;-71
2021/01/02 06:58:38;;;;;;;38.60;22.30;;;1.20;99.90;;;;;;5034538;28;20061;-70
2021/01/02 07:01:05;;;;;;;41.85;24.20;;;1.30;99.90;;;;;;5035156;28;20038;-71
2021/01/02 07:03:40;;;;;;;41.10;24.17;;;1.30;99.90;;;;;;5053070;28;20072;-69
2021/01/02 07:06:23;;;;;;;43.88;22.42;;;1.30;99.90;;;;;;5053685;28;20074;-71
2021/01/02 07:09:09;;;;;;;38.50;22.60;;;1.30;99.90;;;;;;5071552;28;20017;-72
2021/01/02 07:11:38;;;;;;;41.63;22.17;;;1.30;99.90;;;;;;5074633;28;20028;-69
2021/01/02 07:14:10;;;;;;;42.22;24.58;;;1.30;99.90;;;;;;5074457;28;20035;-70
2021/01/02 07:16:46;;;;;;;39.85;23.58;;;1.30;99.90;;;;;;5075715;28;20013;-69
2021/01/02 07:19:29;;;;;;;45.85;25.35;;;1.30;99.90;;;;;;5074728;28;20320;-70
2021/01/02 07:22:20;;;;;;;45.95;24.45;;;1.40;99.90;;;;;;5075487;28;20028;-70
2021/01/02 07:25:08;;;;;;;41.65;24.15;;;1.40;99.90;;;;;;5074037;28;20033;-70
2021/01/02 07:27:39;;;;;;;37.42;22.05;;;1.40;99.90;;;;;;5075751;28;20040;-69
2021/01/02 07:30:12;;;;;;;42.78;24.27;;;1.40;99.90;;;;;;5067050;28;20107;-71
2021/01/02 07:32:42;;;;;;;41.17;24.60;;;1.40;99.90;;;;;;5038057;28;20023;-69
2021/01/02 07:35:09;;;;;;;44.00;23.73;;;1.40;99.90;;;;;;5033081;28;20025;-72
2021/01/02 07:37:39;;;;;;;40.30;23.52;;;1.40;99.90;;;;;;5032624;28;20483;-71
2021/01/02 07:40:16;;;;;;;48.10;25.30;;;1.40;99.90;;;;;;5031942;28;20112;-70
2021/01/02 07:42:47;;;;;;;46.45;24.38;;;1.40;99.90;;;;;;5031627;28;20112;-70
2021/01/02 07:45:15;;;;;;;42.30;24.57;;;1.40;99.90;;;;;;5032607;28;20055;-70
2021/01/02 07:47:55;;;;;;;42.05;23.90;;;1.50;99.90;;;;;;5032100;28;20793;-72
2021/01/02 07:50:22;;;;;;;39.78;24.27;;;1.50;99.90;;;;;;5031808;28;20537;-70
2021/01/02 07:52:50;;;;;;;40.17;23.33;;;1.50;99.90;;;;;;5031346;28;20479;-69
2021/01/02 07:55:21;;;;;;;46.13;27.27;;;1.50;99.90;;;;;;5039937;28;20028;-71
2021/01/02 07:57:47;;;;;;;48.05;29.08;;;1.50;99.90;;;;;;5051936;28;20053;-72
2021/01/02 08:00:14;;;;;;;45.83;27.88;;;1.50;99.90;;;;;;5044916;28;20037;-75
2021/01/02 08:02:40;;;;;;;45.92;26.35;;;1.60;99.90;;;;;;5040919;28;20035;-75
2021/01/02 08:05:17;;;;;;;46.33;27.63;;;1.60;99.90;;;;;;5040541;28;20111;-73
2021/01/02 08:07:58;;;;;;;42.78;24.55;;;1.60;99.90;;;;;;5039916;28;20056;-74
2021/01/02 08:10:25;;;;;;;41.08;24.42;;;1.70;99.90;;;;;;5039106;28;20049;-75
2021/01/02 08:12:56;;;;;;;44.13;25.02;;;1.70;99.90;;;;;;5037976;28;20025;-74
2021/01/02 08:15:36;;;;;;;32.28;19.92;;;1.70;99.90;;;;;;5037638;28;20399;-74
2021/01/02 08:18:07;;;;;;;43.20;26.15;;;1.70;99.90;;;;;;5039066;28;20459;-75
2021/01/02 08:20:34;;;;;;;44.67;23.98;;;1.70;99.90;;;;;;5041119;28;20507;-74
2021/01/02 08:23:06;;;;;;;48.95;25.10;;;1.80;99.90;;;;;;5036602;28;20033;-76
2021/01/02 08:25:32;;;;;;;42.53;24.70;;;1.80;99.90;;;;;;5038949;28;20036;-74
2021/01/02 08:27:58;;;;;;;41.13;24.15;;;1.80;99.90;;;;;;5040818;28;20105;-74
2021/01/02 08:30:24;;;;;;;42.38;24.85;;;1.80;99.90;;;;;;5040489;28;20044;-73
2021/01/02 08:32:54;;;;;;;41.75;24.08;;;1.80;99.90;;;;;;5033545;28;20087;-70
2021/01/02 08:35:29;;;;;;;42.10;24.30;;;1.90;99.90;;;;;;5031753;28;20412;-70
2021/01/02 08:38:07;;;;;;;41.90;23.85;;;1.90;99.90;;;;;;5031189;28;20025;-69
2021/01/02 08:40:49;;;;;;;43.58;24.13;;;1.80;99.90;;;;;;5032751;28;20044;-70
2021/01/02 08:43:21;;;;;;;39.40;22.92;;;1.90;99.90;;;;;;5035100;28;20116;-69
2021/01/02 08:45:47;;;;;;;41.53;24.77;;;1.90;99.90;;;;;;5035763;28;20025;-71
2021/01/02 08:48:13;;;;;;;38.75;22.33;;;2.00;99.90;;;;;;5035732;28;20037;-69
2021/01/02 08:50:40;;;;;;;42.90;24.15;;;2.00;99.90;;;;;;5034299;28;20495;-72
2021/01/02 08:53:05;;;;;;;39.72;23.27;;;1.90;99.90;;;;;;5034413;28;20022;-73
2021/01/02 08:55:31;;;;;;;35.78;20.15;;;1.90;99.90;;;;;;5035173;28;20040;-72
2021/01/02 08:57:57;;;;;;;30.42;17.92;;;2.00;99.90;;;;;;5035389;28;20041;-72
2021/01/02 09:00:30;;;;;;;27.70;16.38;;;2.00;99.90;;;;;;5053698;28;20044;-70
2021/01/02 09:03:06;;;;;;;25.67;15.73;;;2.00;99.90;;;;;;5053863;28;20028;-71
2021/01/02 09:05:37;;;;;;;26.58;15.93;;;2.10;99.90;;;;;;5054572;28;20071;-72
2021/01/02 09:08:08;;;;;;;25.75;15.80;;;2.10;99.90;;;;;;5054920;28;20044;-71
2021/01/02 09:10:34;;;;;;;23.13;15.10;;;2.00;99.90;;;;;;5054823;28;20029;-71
2021/01/02 09:13:10;;;;;;;26.27;15.70;;;2.10;99.90;;;;;;5054177;28;20539;-71
2021/01/02 09:15:54;;;;;;;26.13;15.43;;;2.20;99.90;;;;;;5054511;28;20029;-71
2021/01/02 09:18:28;;;;;;;20.25;13.27;;;2.10;99.90;;;;;;5054901;28;20021;-71
2021/01/02 09:21:15;;;;;;;21.92;14.95;;;2.10;99.90;;;;;;5054881;28;20029;-71
2021/01/02 09:23:43;;;;;;;23.13;13.77;;;2.10;99.90;;;;;;5054256;28;20104;-72
2021/01/02 09:26:20;;;;;;;22.15;14.32;;;2.20;99.90;;;;;;5054717;28;20060;-71
2021/01/02 09:28:46;;;;;;;20.25;13.13;;;2.40;99.90;;;;;;5055030;28;20036;-70
2021/01/02 09:31:12;;;;;;;21.90;13.85;;;2.40;99.90;;;;;;5070193;28;20607;-71
2021/01/02 09:33:38;;;;;;;21.90;13.65;;;2.50;99.90;;;;;;5052497;28;20028;-71
2021/01/02 09:36:04;;;;;;;21.02;13.38;;;2.50;99.90;;;;;;5054849;28;20021;-70
2021/01/02 09:38:30;;;;;;;20.27;13.23;;;2.50;99.90;;;;;;5067465;28;20027;-70
2021/01/02 09:40:56;;;;;;;24.23;15.20;;;2.50;99.90;;;;;;5063651;28;20479;-70
2021/01/02 09:43:21;;;;;;;25.60;15.85;;;2.70;99.90;;;;;;5057028;28;20099;-69
2021/01/02 09:45:47;;;;;;;24.13;15.35;;;2.70;99.90;;;;;;5056561;28;20096;-71
2021/01/02 09:48:13;;;;;;;21.45;13.55;;;2.80;99.90;;;;;;5059066;28;20080;-70
2021/01/02 09:50:42;;;;;;;24.25;15.27;;;2.70;99.90;;;;;;5055222;28;20032;-69
2021/01/02 09:53:09;;;;;;;20.48;13.55;;;2.80;99.90;;;;;;5054300;28;20123;-69
2021/01/02 09:55:35;;;;;;;21.45;13.75;;;2.80;99.90;;;;;;5054079;28;20025;-72
2021/01/02 09:58:00;;;;;;;21.65;13.93;;;2.70;99.90;;;;;;5054697;28;20037;-71
2021/01/02 10:00:27;;;;;;;20.30;12.60;;;2.90;99.90;;;;;;5054384;28;20025;-73
2021/01/02 10:02:57;;;;;;;18.25;11.77;;;2.90;99.90;;;;;;5072716;28;20055;-70
2021/01/02 10:05:25;;;;;;;29.75;16.83;;;3.00;99.90;;;;;;5042018;28;20041;-73
2021/01/02 10:07:51;;;;;;;23.05;13.75;;;3.00;99.90;;;;;;5034067;28;20033;-72
2021/01/02 10:10:18;;;;;;;19.60;12.57;;;3.20;99.90;;;;;;5034437;28;20021;-73
2021/01/02 10:12:45;;;;;;;17.23;11.35;;;3.20;99.90;;;;;;5034558;28;20036;-74
2021/01/02 10:15:13;;;;;;;15.68;11.00;;;3.30;99.90;;;;;;5034516;28;20017;-72
2021/01/02 10:17:39;;;;;;;15.60;11.05;;;3.30;99.90;;;;;;5034439;28;20018;-72
2021/01/02 10:20:05;;;;;;;16.38;11.23;;;3.20;99.90;;;;;;5048295;28;20036;-74
2021/01/02 10:22:32;;;;;;;17.77;10.93;;;3.30;99.90;;;;;;5054817;28;20025;-74
2021/01/02 10:24:57;;;;;;;14.02;10.07;;;3.30;99.90;;;;;;5054258;28;20032;-73
2021/01/02 10:27:24;;;;;;;15.15;10.63;;;3.20;99.90;;;;;;5054462;28;20033;-72
2021/01/02 10:29:53;;;;;;;18.25;11.85;;;3.30;99.90;;;;;;5055821;28;20048;-72
2021/01/02 10:32:22;;;;;;;19.80;13.45;;;3.30;99.90;;;;;;5058092;28;20095;-71
2021/01/02 10:34:49;;;;;;;17.88;11.95;;;3.40;99.90;;;;;;5057278;28;20568;-71
2021/01/02 10:37:17;;;;;;;16.20;11.60;;;3.40;99.90;;;;;;5046837;28;20045;-72
2021/01/02 10:39:43;;;;;;;20.23;12.75;;;3.20;99.90;;;;;;5049014;28;20055;-72
2021/01/02 10:42:15;;;;;;;19.20;13.27;;;3.40;99.90;;;;;;5054418;28;20052;-73
2021/01/02 10:44:45;;;;;;;19.73;12.55;;;3.40;99.90;;;;;;5052103;28;20466;-71
2021/01/02 10:47:11;;;;;;;22.92;13.32;;;3.40;99.90;;;;;;5042828;28;20033;-71
2021/01/02 10:49:37;;;;;;;22.10;13.23;;;3.50;99.90;;;;;;5042262;28;20017;-73
2021/01/02 10:52:03;;;;;;;26.17;15.23;;;3.70;99.90;;;;;;5043457;28;20105;-74
2021/01/02 10:54:28;;;;;;;21.60;14.32;;;3.70;99.90;;;;;;5041536;28;20502;-71
2021/01/02 10:56:54;;;;;;;21.40;13.32;;;3.60;99.90;;;;;;5042879;28;20013;-72
2021/01/02 10:59:23;;;;;;;20.30;12.35;;;3.60;99.90;;;;;;5041390;28;20094;-72
2021/01/02 11:01:51;;;;;;;20.67;13.02;;;3.80;99.90;;;;;;5040703;28;20398;-74
2021/01/02 11:04:20;;;;;;;19.38;12.85;;;3.80;99.90;;;;;;5049214;28;20025;-74
2021/01/02 11:06:50;;;;;;;17.90;12.10;;;3.80;99.90;;;;;;5032810;28;20033;-74
2021/01/02 11:09:17;;;;;;;17.45;11.85;;;3.80;99.90;;;;;;5032954;28;20024;-74
2021/01/02 11:11:42;;;;;;;17.02;12.02;;;4.00;99.90;;;;;;5032483;28;20026;-73
2021/01/02 11:14:10;;;;;;;19.08;12.18;;;4.20;99.90;;;;;;5032025;28;20029;-72
2021/01/02 11:16:44;;;;;;;18.55;12.35;;;4.30;99.90;;;;;;5036817;28;20071;-73
2021/01/02 11:19:20;;;;;;;19.88;12.80;;;4.40;99.90;;;;;;5052465;28;20029;-74
2021/01/02 11:21:47;;;;;;;18.95;12.48;;;4.30;99.90;;;;;;5052590;28;20044;-73
2021/01/02 11:24:14;;;;;;;18.98;13.20;;;4.50;99.90;;;;;;5037698;28;20045;-73
2021/01/02 11:26:48;;;;;;;21.15;13.63;;;4.60;99.90;;;;;;5032672;28;20427;-73
2021/01/02 11:29:15;;;;;;;18.88;13.27;;;4.60;99.90;;;;;;5032649;28;20064;-72
2021/01/02 11:31:42;;;;;;;20.98;13.82;;;4.60;99.90;;;;;;5039492;28;20386;-74
2021/01/02 11:34:08;;;;;;;20.50;14.15;;;4.70;99.90;;;;;;5051745;28;20029;-74
2021/01/02 11:36:34;;;;;;;17.05;11.80;;;4.40;99.90;;;;;;5052199;28;20616;-72
2021/01/02 11:39:01;;;;;;;20.77;12.32;;;4.20;99.90;;;;;;5052337;28;20167;-71
2021/01/02 11:41:39;;;;;;;17.58;12.18;;;4.30;99.90;;;;;;5059175;28;20049;-74
2021/01/02 11:44:07;;;;;;;16.08;11.15;;;4.30;99.90;;;;;;5071600;28;20083;-74
2021/01/02 11:46:41;;;;;;;17.40;12.82;;;4.40;99.90;;;;;;5057335;28;20029;-74
2021/01/02 11:49:09;;;;;;;17.40;11.23;;;4.40;99.90;;;;;;5053418;28;20028;-72
2021/01/02 11:51:36;;;;;;;15.18;11.07;;;4.40;99.90;;;;;;5051493;28;20052;-74
2021/01/02 11:54:03;;;;;;;15.43;10.60;;;4.60;99.90;;;;;;5052356;28;20426;-74
2021/01/02 11:56:29;;;;;;;17.58;11.70;;;4.40;99.90;;;;;;5051404;28;20024;-73
2021/01/02 11:58:56;;;;;;;15.30;10.10;;;4.40;99.90;;;;;;5051976;28;20032;-75
2021/01/02 12:01:32;;;;;;;13.98;10.25;;;4.20;99.90;;;;;;5052149;28;20025;-74
2021/01/02 12:03:57;;;;;;;13.32;9.45;;;4.20;99.90;;;;;;5067171;28;20531;-73
2021/01/02 12:06:30;;;;;;;14.20;9.13;;;4.20;99.90;;;;;;5051556;28;20108;-72
2021/01/02 12:08:57;;;;;;;12.93;9.43;;;4.20;99.90;;;;;;5051440;28;20517;-74
2021/01/02 12:11:31;;;;;;;14.05;9.30;;;4.20;99.90;;;;;;5051746;28;20025;-74
2021/01/02 12:13:58;;;;;;;13.48;9.90;;;4.00;99.90;;;;;;5049218;28;20029;-70
2021/01/02 12:16:38;;;;;;;14.88;10.05;;;3.90;99.90;;;;;;5047756;28;20344;-72
2021/01/02 12:19:06;;;;;;;15.27;10.50;;;3.90;99.90;;;;;;5061065;23;20008;-67
2021/01/02 12:21:32;;;;;;;15.98;10.90;;;3.90;99.90;;;;;;5049270;28;20510;-66
2021/01/02 12:23:58;;;;;;;16.80;10.45;;;3.70;99.90;;;;;;5040665;28;20053;-66
2021/01/02 12:26:24;;;;;;;14.38;10.43;;;3.80;99.90;;;;;;5039892;28;20017;-67
2021/01/02 12:28:51;;;;;;;16.90;10.88;;;3.80;99.90;;;;;;5044454;28;20037;-67
2021/01/02 12:31:18;;;;;;;15.60;10.65;;;3.80;99.90;;;;;;5030114;28;20048;-67
2021/01/02 12:33:44;;;;;;;18.63;11.05;;;3.90;99.90;;;;;;5045028;28;20021;-66
2021/01/02 12:36:11;;;;;;;21.15;11.30;;;3.80;99.90;;;;;;5042537;28;20033;-66
2021/01/02 12:38:38;;;;;;;16.80;11.82;;;3.90;99.90;;;;;;5030090;28;20399;-65
2021/01/02 12:41:04;;;;;;;18.40;12.60;;;4.00;99.90;;;;;;5030268;28;20029;-66
2021/01/02 12:43:30;;;;;;;19.15;13.52;;;4.10;99.90;;;;;;5030468;28;20030;-66
2021/01/02 12:45:59;;;;;;;21.90;13.57;;;4.10;99.90;;;;;;5031268;28;20029;-65
2021/01/02 12:48:25;;;;;;;19.75;12.30;;;4.10;99.90;;;;;;5032095;28;20026;-66
2021/01/02 12:50:54;;;;;;;21.92;14.40;;;3.90;99.90;;;;;;5031109;28;20030;-66
2021/01/02 12:53:20;;;;;;;20.88;13.75;;;3.80;99.90;;;;;;5031928;28;20030;-65